createdAt,value
2023-01-10T00:01:42.277Z,9.73
2023-01-10T00:04:10.163Z,9.49
2023-01-10T00:06:38.437Z,9.28
2023-01-10T00:09:06.205Z,9.08
2023-01-10T00:11:52.883Z,8.91
2023-01-10T00:14:20.756Z,9.07
2023-01-10T00:16:48.524Z,10.16
2023-01-10T00:19:16.327Z,10.99
2023-01-10T00:21:44.039Z,11.66
2023-01-10T00:24:22.345Z,11.90
2023-01-10T00:26:51.534Z,11.30
2023-01-10T00:29:28.955Z,10.70
2023-01-10T00:31:57.410Z,10.23
2023-01-10T00:34:25.230Z,9.90
2023-01-10T00:36:53.379Z,9.65
2023-01-10T00:39:21.199Z,9.41
2023-01-10T00:42:07.496Z,9.21
2023-01-10T00:44:35.569Z,9.00
2023-01-10T00:47:03.570Z,8.99
2023-01-10T00:49:31.331Z,9.93
2023-01-10T00:51:59.961Z,11.08
2023-01-10T00:54:27.880Z,11.56
2023-01-10T00:56:55.747Z,11.07
2023-01-10T00:59:24.073Z,10.50
2023-01-10T01:01:52.791Z,10.07
2023-01-10T01:04:21.599Z,9.76
2023-01-10T01:06:50.849Z,9.51
2023-01-10T01:09:18.730Z,9.29
2023-01-10T01:11:46.542Z,9.10
2023-01-10T01:14:14.262Z,8.93
2023-01-10T01:16:42.036Z,8.78
2023-01-10T01:19:09.839Z,8.80
2023-01-10T01:21:37.615Z,9.63
2023-01-10T01:24:05.556Z,10.88
2023-01-10T01:26:35.311Z,11.71
2023-01-10T01:29:03.205Z,11.30
2023-01-10T01:31:31.120Z,10.63
2023-01-10T01:33:59.306Z,10.14
2023-01-10T01:36:27.067Z,9.78
2023-01-10T01:38:54.780Z,9.51
2023-01-10T01:41:41.450Z,9.28
2023-01-10T01:44:17.585Z,9.04
2023-01-10T01:46:49.045Z,8.86
2023-01-10T01:49:23.733Z,8.70
2023-01-10T01:51:57.772Z,8.83
2023-01-10T01:54:26.205Z,10.17
2023-01-10T01:57:00.680Z,11.32
2023-01-10T01:59:34.448Z,11.74
2023-01-10T02:02:08.760Z,11.14
2023-01-10T02:04:42.671Z,10.50
2023-01-10T02:07:10.929Z,10.06
2023-01-10T02:09:46.359Z,9.75
2023-01-10T02:12:15.552Z,9.52
2023-01-10T02:14:45.130Z,9.33
2023-01-10T02:17:13.273Z,9.16
2023-01-10T02:19:51.186Z,9.00
2023-01-10T02:22:39.815Z,8.82
2023-01-10T02:25:25.915Z,8.65
2023-01-10T02:28:20.309Z,8.84
2023-01-10T02:31:13.006Z,10.29
2023-01-10T02:33:59.572Z,11.28
2023-01-10T02:36:33.548Z,11.75
2023-01-10T02:39:26.194Z,11.33
2023-01-10T02:42:07.608Z,10.58
2023-01-10T02:44:54.865Z,10.07
2023-01-10T02:47:22.572Z,9.62
2023-01-10T02:49:51.875Z,9.32
2023-01-10T02:52:28.394Z,9.09
2023-01-10T02:54:59.723Z,8.87
2023-01-10T02:57:47.626Z,8.67
2023-01-10T03:00:30.900Z,8.80
2023-01-10T03:03:07.989Z,9.89
2023-01-10T03:06:07.919Z,10.79
2023-01-10T03:08:40.555Z,11.33
2023-01-10T03:11:09.851Z,11.64
2023-01-10T03:13:46.840Z,11.12
2023-01-10T03:16:18.566Z,10.45
2023-01-10T03:19:05.068Z,9.91
2023-01-10T03:21:33.349Z,9.45
2023-01-10T03:24:06.390Z,9.11
2023-01-10T03:26:42.494Z,8.85
2023-01-10T03:29:11.836Z,8.86
2023-01-10T03:31:49.864Z,9.75
2023-01-10T03:34:17.961Z,10.98
2023-01-10T03:37:03.370Z,11.87
2023-01-10T03:39:41.612Z,11.97
2023-01-10T03:42:15.933Z,11.19
2023-01-10T03:44:43.767Z,10.42
2023-01-10T03:47:39.027Z,9.91
2023-01-10T03:50:11.137Z,9.47
2023-01-10T03:52:40.795Z,9.15
2023-01-10T03:55:12.309Z,8.90
2023-01-10T03:57:42.687Z,8.73
2023-01-10T04:00:11.206Z,9.52
2023-01-10T04:02:39.337Z,10.93
2023-01-10T04:05:07.817Z,12.06
2023-01-10T04:07:35.709Z,12.42
2023-01-10T04:10:05.318Z,11.68
2023-01-10T04:12:33.270Z,10.88
2023-01-10T04:15:01.614Z,10.30
2023-01-10T04:17:29.527Z,9.88
2023-01-10T04:19:57.287Z,9.53
2023-01-10T04:22:25.373Z,9.23
2023-01-10T04:24:54.491Z,8.97
2023-01-10T04:27:22.380Z,8.95
2023-01-10T04:29:50.121Z,9.84
2023-01-10T04:32:17.920Z,10.84
2023-01-10T04:34:45.750Z,11.61
2023-01-10T04:37:13.611Z,11.92
2023-01-10T04:39:41.336Z,11.28
2023-01-10T04:42:09.124Z,10.57
2023-01-10T04:44:37.061Z,10.02
2023-01-10T04:47:04.911Z,9.62
2023-01-10T04:49:32.723Z,9.29
2023-01-10T04:52:00.720Z,9.05
2023-01-10T04:54:28.416Z,8.91
2023-01-10T04:56:56.212Z,9.61
2023-01-10T04:59:24.087Z,10.59
2023-01-10T05:01:51.878Z,11.34
2023-01-10T05:04:21.004Z,11.71
2023-01-10T05:06:49.410Z,11.13
2023-01-10T05:09:17.587Z,10.46
2023-01-10T05:11:45.598Z,9.94
2023-01-10T05:14:13.465Z,9.56
2023-01-10T05:16:41.323Z,9.28
2023-01-10T05:19:09.549Z,9.06
2023-01-10T05:21:37.273Z,9.21
2023-01-10T05:24:05.721Z,9.94
2023-01-10T05:26:33.545Z,10.58
2023-01-10T05:29:01.367Z,11.06
2023-01-10T05:31:29.209Z,11.27
2023-01-10T05:33:56.933Z,10.81
2023-01-10T05:36:24.808Z,10.20
2023-01-10T05:38:52.686Z,9.75
2023-01-10T05:41:20.894Z,9.37
2023-01-10T05:43:48.604Z,9.07
2023-01-10T05:46:16.392Z,9.03
2023-01-10T05:48:44.200Z,9.91
2023-01-10T05:51:12.127Z,10.56
2023-01-10T05:53:39.931Z,10.89
2023-01-10T05:56:07.797Z,11.20
2023-01-10T05:58:35.607Z,11.36
2023-01-10T06:01:03.494Z,10.83
2023-01-10T06:03:31.345Z,10.20
2023-01-10T06:05:59.285Z,9.73
2023-01-10T06:08:27.176Z,9.35
2023-01-10T06:10:55.699Z,9.04
2023-01-10T06:13:23.916Z,9.05
2023-01-10T06:15:51.716Z,10.04
2023-01-10T06:18:19.524Z,10.57
2023-01-10T06:20:47.301Z,10.69
2023-01-10T06:23:15.547Z,11.07
2023-01-10T06:25:43.472Z,11.37
2023-01-10T06:28:12.733Z,10.85
2023-01-10T06:30:42.089Z,10.25
2023-01-10T06:33:11.362Z,9.79
2023-01-10T06:35:39.866Z,9.44
2023-01-10T06:38:07.842Z,9.15
2023-01-10T06:40:35.625Z,8.91
2023-01-10T06:43:03.437Z,8.85
2023-01-10T06:45:31.250Z,9.51
2023-01-10T06:47:58.958Z,10.37
2023-01-10T06:50:26.907Z,10.67
2023-01-10T06:53:02.512Z,10.79
2023-01-10T06:55:31.518Z,11.02
2023-01-10T06:58:01.790Z,11.31
2023-01-10T07:00:30.514Z,10.83
2023-01-10T07:03:00.772Z,10.24
2023-01-10T07:05:29.703Z,9.77
2023-01-10T07:07:58.896Z,9.41
2023-01-10T07:10:27.732Z,9.16
2023-01-10T07:12:55.856Z,8.96
2023-01-10T07:15:23.641Z,9.14
2023-01-10T07:17:51.510Z,9.68
2023-01-10T07:20:20.070Z,10.32
2023-01-10T07:22:58.672Z,11.06
2023-01-10T07:25:28.179Z,11.67
2023-01-10T07:27:55.983Z,11.81
2023-01-10T07:30:25.405Z,11.22
2023-01-10T07:32:57.154Z,10.55
2023-01-10T07:35:25.577Z,9.98
2023-01-10T07:37:53.413Z,9.56
2023-01-10T07:40:21.201Z,9.36
2023-01-10T07:42:49.119Z,9.87
2023-01-10T07:45:16.833Z,10.57
2023-01-10T07:47:44.749Z,11.24
2023-01-10T07:50:12.530Z,11.55
2023-01-10T07:52:40.361Z,11.07
2023-01-10T07:55:08.695Z,10.38
2023-01-10T07:57:36.544Z,9.86
2023-01-10T08:00:04.544Z,9.45
2023-01-10T08:02:32.922Z,9.28
2023-01-10T08:05:01.273Z,9.81
2023-01-10T08:07:30.396Z,10.64
2023-01-10T08:09:58.657Z,11.28
2023-01-10T08:12:26.467Z,11.93
2023-01-10T08:14:54.243Z,11.89
2023-01-10T08:17:23.049Z,11.09
2023-01-10T08:19:50.941Z,10.40
2023-01-10T08:22:18.691Z,9.88
2023-01-10T08:24:46.376Z,9.50
2023-01-10T08:27:14.134Z,9.46
2023-01-10T08:29:42.229Z,10.56
2023-01-10T08:32:10.145Z,11.53
2023-01-10T08:34:37.914Z,11.83
2023-01-10T08:37:05.877Z,11.28
2023-01-10T08:39:35.710Z,10.66
2023-01-10T08:42:03.980Z,10.12
2023-01-10T08:44:31.827Z,9.71
2023-01-10T08:46:59.746Z,9.39
2023-01-10T08:49:27.515Z,9.37
2023-01-10T08:51:55.298Z,10.27
2023-01-10T08:54:23.201Z,11.17
2023-01-10T08:56:50.950Z,11.65
2023-01-10T08:59:18.688Z,11.90
2023-01-10T09:01:46.748Z,11.42
2023-01-10T09:04:14.545Z,10.76
2023-01-10T09:06:42.323Z,10.22
2023-01-10T09:09:10.358Z,9.79
2023-01-10T09:11:38.765Z,9.64
2023-01-10T09:14:07.927Z,10.32
2023-01-10T09:16:35.861Z,10.97
2023-01-10T09:19:04.383Z,11.43
2023-01-10T09:21:32.222Z,11.64
2023-01-10T09:24:00.005Z,11.13
2023-01-10T09:26:27.751Z,10.52
2023-01-10T09:28:55.506Z,10.07
2023-01-10T09:31:23.363Z,9.75
2023-01-10T09:33:53.638Z,9.66
2023-01-10T09:36:21.490Z,10.31
2023-01-10T09:38:49.224Z,11.11
2023-01-10T09:42:02.368Z,11.44
2023-01-10T09:44:42.308Z,11.82
2023-01-10T09:47:23.032Z,11.41
2023-01-10T09:50:10.508Z,10.78
2023-01-10T09:52:41.459Z,10.28
2023-01-10T09:55:27.912Z,10.17
2023-01-10T09:57:57.867Z,10.68
2023-01-10T10:00:39.363Z,11.15
2023-01-10T10:03:26.136Z,11.60
2023-01-10T10:06:00.844Z,12.11
2023-01-10T10:08:36.149Z,12.22
2023-01-10T10:11:23.577Z,11.65
2023-01-10T10:14:02.933Z,11.03
2023-01-10T10:16:44.074Z,10.62
2023-01-10T10:19:53.440Z,10.46
2023-01-10T10:22:38.280Z,11.73
2023-01-10T10:25:08.998Z,12.49
2023-01-10T10:28:20.955Z,12.90
2023-01-10T10:31:08.632Z,12.07
2023-01-10T10:34:16.090Z,11.31
2023-01-10T10:37:25.107Z,10.71
2023-01-10T10:40:26.043Z,10.29
2023-01-10T10:42:56.167Z,10.01
2023-01-10T10:45:39.521Z,10.47
2023-01-10T10:48:18.235Z,11.21
2023-01-10T10:51:24.415Z,11.76
2023-01-10T10:53:52.275Z,12.30
2023-01-10T10:56:21.839Z,12.64
2023-01-10T10:58:51.752Z,12.73
2023-01-10T11:01:20.064Z,12.16
2023-01-10T11:03:52.792Z,11.60
2023-01-10T11:06:21.762Z,11.15
2023-01-10T11:08:53.204Z,10.81
2023-01-10T11:11:26.324Z,10.56
2023-01-10T11:13:57.150Z,10.41
2023-01-10T11:16:33.395Z,10.83
2023-01-10T11:19:21.556Z,11.48
2023-01-10T11:21:54.017Z,12.12
2023-01-10T11:24:38.359Z,12.39
2023-01-10T11:27:21.262Z,11.85
2023-01-10T11:29:54.011Z,11.20
2023-01-10T11:32:27.730Z,10.76
2023-01-10T11:34:59.140Z,10.42
2023-01-10T11:37:32.762Z,10.29
2023-01-10T11:40:24.011Z,10.85
2023-01-10T11:42:59.145Z,11.50
2023-01-10T11:45:32.975Z,12.05
2023-01-10T11:48:21.391Z,12.21
2023-01-10T11:50:55.239Z,11.62
2023-01-10T11:53:43.190Z,11.04
2023-01-10T11:56:13.990Z,10.57
2023-01-10T11:58:42.685Z,10.29
2023-01-10T12:01:31.112Z,10.19
2023-01-10T12:03:59.040Z,10.55
2023-01-10T12:06:27.903Z,11.13
2023-01-10T12:08:58.087Z,11.67
2023-01-10T12:11:33.185Z,12.01
2023-01-10T12:14:02.016Z,12.22
2023-01-10T12:16:34.453Z,11.77
2023-01-10T12:19:05.217Z,11.18
2023-01-10T12:21:39.114Z,10.77
2023-01-10T12:24:16.331Z,10.46
2023-01-10T12:26:44.867Z,10.47
2023-01-10T12:29:16.654Z,11.22
2023-01-10T12:31:44.598Z,11.87
2023-01-10T12:34:20.146Z,12.34
2023-01-10T12:37:04.395Z,12.61
2023-01-10T12:39:35.062Z,12.10
2023-01-10T12:42:32.622Z,11.57
2023-01-10T12:45:09.246Z,11.04
2023-01-10T12:47:57.372Z,10.71
2023-01-10T12:50:42.064Z,10.56
2023-01-10T12:53:30.950Z,10.99
2023-01-10T12:56:04.221Z,11.48
2023-01-10T12:58:56.060Z,11.76
2023-01-10T13:01:32.273Z,12.27
2023-01-10T13:04:04.333Z,12.34
2023-01-10T13:06:35.276Z,11.97
2023-01-10T13:09:17.236Z,11.50
2023-01-10T13:12:14.877Z,11.02
2023-01-10T13:15:04.970Z,10.64
2023-01-10T13:17:32.738Z,10.47
2023-01-10T13:20:27.669Z,10.85
2023-01-10T13:22:58.063Z,11.86
2023-01-10T13:25:37.904Z,12.43
2023-01-10T13:28:10.190Z,12.61
2023-01-10T13:30:40.683Z,12.02
2023-01-10T13:33:25.043Z,11.41
2023-01-10T13:35:53.475Z,10.96
2023-01-10T13:38:30.088Z,10.65
2023-01-10T13:40:57.865Z,10.39
2023-01-10T13:43:29.406Z,10.19
2023-01-10T13:46:23.385Z,10.05
2023-01-10T13:48:51.188Z,10.81
2023-01-10T13:51:19.768Z,11.99
2023-01-10T13:53:54.942Z,12.84
2023-01-10T13:56:28.737Z,13.38
2023-01-10T13:59:15.099Z,13.03
2023-01-10T14:02:01.801Z,12.19
2023-01-10T14:04:30.049Z,11.49
2023-01-10T14:07:01.390Z,10.99
2023-01-10T14:09:33.767Z,10.59
2023-01-10T14:12:05.699Z,10.29
2023-01-10T14:14:33.363Z,10.05
2023-01-10T14:17:10.202Z,9.85
2023-01-10T14:19:37.939Z,9.66
2023-01-10T14:22:05.686Z,9.54
2023-01-10T14:24:43.357Z,9.45
2023-01-10T14:27:14.978Z,9.74
2023-01-10T14:29:50.025Z,10.85
2023-01-10T14:32:26.984Z,12.10
2023-01-10T14:34:54.720Z,12.88
2023-01-10T14:37:31.313Z,13.49
2023-01-10T14:39:59.352Z,13.75
2023-01-10T14:42:27.347Z,13.12
2023-01-10T14:45:10.462Z,12.42
2023-01-10T14:47:39.062Z,11.82
2023-01-10T14:50:07.101Z,11.39
2023-01-10T14:52:34.716Z,11.02
2023-01-10T14:55:04.643Z,10.71
2023-01-10T14:57:32.347Z,10.43
2023-01-10T15:00:15.669Z,10.18
2023-01-10T15:02:45.823Z,9.96
2023-01-10T15:05:20.794Z,9.79
2023-01-10T15:07:48.723Z,9.64
2023-01-10T15:10:27.505Z,9.51
2023-01-10T15:12:56.396Z,9.62
2023-01-10T15:15:27.482Z,10.43
2023-01-10T15:17:55.269Z,11.30
2023-01-10T15:20:23.110Z,12.15
2023-01-10T15:22:54.571Z,12.90
2023-01-10T15:25:24.315Z,13.09
2023-01-10T15:27:52.676Z,12.42
2023-01-10T15:30:24.384Z,11.72
2023-01-10T15:32:52.892Z,11.18
2023-01-10T15:35:27.473Z,10.77
2023-01-10T15:38:11.369Z,10.39
2023-01-10T15:40:39.200Z,10.08
2023-01-10T15:43:13.531Z,9.87
2023-01-10T15:45:42.785Z,9.69
2023-01-10T15:48:29.497Z,9.52
2023-01-10T15:51:03.653Z,9.38
2023-01-10T15:53:51.791Z,9.27
2023-01-10T15:56:20.920Z,9.16
2023-01-10T15:58:48.589Z,9.39
2023-01-10T16:01:16.525Z,10.60
2023-01-10T16:03:45.356Z,11.80
2023-01-10T16:06:23.579Z,12.68
2023-01-10T16:08:52.952Z,13.28
2023-01-10T16:11:43.321Z,12.82
2023-01-10T16:14:11.415Z,12.01
2023-01-10T16:16:39.375Z,11.46
2023-01-10T16:19:07.134Z,11.03
2023-01-10T16:21:36.102Z,10.71
2023-01-10T16:24:04.267Z,10.45
2023-01-10T16:26:31.999Z,10.24
2023-01-10T16:28:59.783Z,10.05
2023-01-10T16:31:27.611Z,9.87
2023-01-10T16:33:55.668Z,9.72
2023-01-10T16:36:23.696Z,9.59
2023-01-10T16:38:51.394Z,9.49
2023-01-10T16:41:37.970Z,9.37
2023-01-10T16:44:05.693Z,9.26
2023-01-10T16:46:33.488Z,9.68
2023-01-10T16:49:01.209Z,10.81
2023-01-10T16:51:30.290Z,11.90
2023-01-10T16:53:58.033Z,12.69
2023-01-10T16:56:26.562Z,12.92
2023-01-10T16:58:54.572Z,12.27
2023-01-10T17:01:24.293Z,11.55
2023-01-10T17:03:52.172Z,11.04
2023-01-10T17:06:20.004Z,10.65
2023-01-10T17:08:49.553Z,10.33
2023-01-10T17:11:18.215Z,10.03
2023-01-10T17:13:46.102Z,9.76
2023-01-10T17:16:13.880Z,9.52
2023-01-10T17:18:42.213Z,9.33
2023-01-10T17:21:20.262Z,9.19
2023-01-10T17:23:48.025Z,9.09
2023-01-10T17:26:16.372Z,9.67
2023-01-10T17:28:49.446Z,10.99
2023-01-10T17:31:19.495Z,12.11
2023-01-10T17:33:48.977Z,12.47
2023-01-10T17:36:19.117Z,11.86
2023-01-10T17:38:47.430Z,11.09
2023-01-10T17:41:15.299Z,10.49
2023-01-10T17:43:42.944Z,10.06
2023-01-10T17:46:11.025Z,9.72
2023-01-10T17:48:38.814Z,9.45
2023-01-10T17:51:06.461Z,9.23
2023-01-10T17:53:34.264Z,9.04
2023-01-10T17:56:02.110Z,9.14
2023-01-10T17:58:29.917Z,10.04
2023-01-10T18:00:57.898Z,11.07
2023-01-10T18:03:25.657Z,12.04
2023-01-10T18:05:54.546Z,12.70
2023-01-10T18:08:22.578Z,12.72
2023-01-10T18:10:50.704Z,11.88
2023-01-10T18:13:18.805Z,11.15
2023-01-10T18:15:47.689Z,10.59
2023-01-10T18:18:16.685Z,10.16
2023-01-10T18:20:44.680Z,9.84
2023-01-10T18:23:22.109Z,9.59
2023-01-10T18:26:00.235Z,10.33
2023-01-10T18:28:40.003Z,11.63
2023-01-10T18:31:09.886Z,12.38
2023-01-10T18:33:37.757Z,11.92
2023-01-10T18:36:06.325Z,11.21
2023-01-10T18:38:35.170Z,10.65
2023-01-10T18:41:02.880Z,10.26
2023-01-10T18:43:31.263Z,9.95
2023-01-10T18:46:03.365Z,9.64
2023-01-10T18:48:31.478Z,9.32
2023-01-10T18:50:59.877Z,9.01
2023-01-10T18:53:28.035Z,9.09
2023-01-10T18:55:56.220Z,10.04
2023-01-10T18:58:25.320Z,11.15
2023-01-10T19:00:53.870Z,12.03
2023-01-10T19:03:21.704Z,11.99
2023-01-10T19:05:49.955Z,11.27
2023-01-10T19:08:17.732Z,10.69
2023-01-10T19:11:07.518Z,10.28
2023-01-10T19:13:33.116Z,9.97
2023-01-10T19:16:28.305Z,9.75
2023-01-10T19:19:00.037Z,9.55
2023-01-10T19:21:29.396Z,9.41
2023-01-10T19:24:00.103Z,9.27
2023-01-10T19:26:28.419Z,9.14
2023-01-10T19:28:56.482Z,9.04
2023-01-10T19:31:25.371Z,8.95
2023-01-10T19:33:53.423Z,8.86
2023-01-10T19:36:22.342Z,8.80
2023-01-10T19:38:57.030Z,8.75
2023-01-10T19:41:25.359Z,8.69
2023-01-10T19:43:59.678Z,8.64
2023-01-10T19:46:27.720Z,8.60
2023-01-10T19:48:55.741Z,8.56
2023-01-10T19:51:23.513Z,8.53
2023-01-10T19:53:51.103Z,8.49
2023-01-10T19:56:23.037Z,8.45
2023-01-10T19:58:51.036Z,8.42
2023-01-10T20:01:19.958Z,8.40
2023-01-10T20:03:47.837Z,8.37
2023-01-10T20:06:17.240Z,8.36
2023-01-10T20:08:45.203Z,8.34
2023-01-10T20:11:12.996Z,8.33
2023-01-10T20:13:45.101Z,8.33
2023-01-10T20:16:13.496Z,8.33
2023-01-10T20:18:41.442Z,8.31
2023-01-10T20:21:09.715Z,8.30
2023-01-10T20:23:37.947Z,8.29
2023-01-10T20:26:06.679Z,8.29
2023-01-10T20:28:34.480Z,8.28
2023-01-10T20:31:02.262Z,8.28
2023-01-10T20:33:30.020Z,8.29
2023-01-10T20:36:01.734Z,8.28
2023-01-10T20:38:29.695Z,8.29
2023-01-10T20:41:01.002Z,8.29
2023-01-10T20:43:28.733Z,8.28
2023-01-10T20:45:56.472Z,8.64
2023-01-10T20:48:24.220Z,9.64
2023-01-10T20:50:51.839Z,10.42
2023-01-10T20:53:19.731Z,11.12
2023-01-10T20:55:59.121Z,11.80
2023-01-10T20:58:27.521Z,12.54
2023-01-10T21:00:55.219Z,12.29
2023-01-10T21:03:22.858Z,11.66
2023-01-10T21:05:51.112Z,11.14
2023-01-10T21:08:19.171Z,10.73
2023-01-10T21:10:47.141Z,10.41
2023-01-10T21:13:14.808Z,10.16
2023-01-10T21:15:43.710Z,9.97
2023-01-10T21:18:12.043Z,9.80
2023-01-10T21:20:43.592Z,9.64
2023-01-10T21:23:11.677Z,9.51
2023-01-10T21:25:39.631Z,9.38
2023-01-10T21:28:09.832Z,9.28
2023-01-10T21:30:37.960Z,9.17
2023-01-10T21:33:05.780Z,9.07
2023-01-10T21:35:33.918Z,8.98
2023-01-10T21:38:02.283Z,8.91
2023-01-10T21:40:31.806Z,8.83
2023-01-10T21:43:00.171Z,8.73
2023-01-10T21:45:28.554Z,8.63
2023-01-10T21:47:56.568Z,8.57
2023-01-10T21:50:24.183Z,8.52
2023-01-10T21:52:51.870Z,8.47
2023-01-10T21:55:19.644Z,8.41
2023-01-10T21:57:47.315Z,8.35
2023-01-10T22:00:15.129Z,8.47
2023-01-10T22:02:43.105Z,9.81
2023-01-10T22:05:11.239Z,10.88
2023-01-10T22:07:38.903Z,11.52
2023-01-10T22:10:07.603Z,11.92
2023-01-10T22:12:36.670Z,11.75
2023-01-10T22:15:04.694Z,11.16
2023-01-10T22:17:32.361Z,10.70
2023-01-10T22:20:00.039Z,10.34
2023-01-10T22:22:27.712Z,10.05
2023-01-10T22:24:55.469Z,9.82
2023-01-10T22:27:23.067Z,9.63
2023-01-10T22:29:50.789Z,9.48
2023-01-10T22:32:18.512Z,9.32
2023-01-10T22:34:46.188Z,9.14
2023-01-10T22:37:13.836Z,8.97
2023-01-10T22:39:41.797Z,8.81
2023-01-10T22:42:09.394Z,8.69
2023-01-10T22:44:37.029Z,8.59
2023-01-10T22:47:04.714Z,8.52
2023-01-10T22:49:32.331Z,8.45
2023-01-10T22:51:59.950Z,8.37
2023-01-10T22:54:27.690Z,8.30
2023-01-10T22:56:55.410Z,8.24
2023-01-10T22:59:23.131Z,8.19
2023-01-10T23:01:50.912Z,8.15
2023-01-10T23:04:20.300Z,8.19
2023-01-10T23:06:48.577Z,9.02
2023-01-10T23:09:16.235Z,10.15
2023-01-10T23:11:43.865Z,11.01
2023-01-10T23:14:11.615Z,11.66
2023-01-10T23:16:39.320Z,11.95
2023-01-10T23:19:07.043Z,11.45
2023-01-10T23:21:34.710Z,10.85
2023-01-10T23:24:02.355Z,10.42
2023-01-10T23:26:30.022Z,10.12
2023-01-10T23:28:57.723Z,9.85
2023-01-10T23:31:29.516Z,9.58
2023-01-10T23:33:57.577Z,9.36
2023-01-10T23:36:25.203Z,9.19
2023-01-10T23:38:53.018Z,9.03
2023-01-10T23:41:21.172Z,8.87
2023-01-10T23:43:49.403Z,8.73
2023-01-10T23:46:17.267Z,8.60
2023-01-10T23:48:46.527Z,8.50
2023-01-10T23:51:14.681Z,8.41
2023-01-10T23:53:42.360Z,8.32
2023-01-10T23:56:10.867Z,8.23
2023-01-10T23:58:38.740Z,8.16
